AirNav   Everest Fuels
 
 547 users online  

NE36 Werner Ranch Airfield
Anselmo, Nebraska, USA

GOING TO ANSELMO?


FAA INFORMATION EFFECTIVE 03 NOVEMBER 2022

Location

FAA Identifier: NE36
Lat/Long: 41-32-57.3000N 100-02-56.2800W
41-32.955000N 100-02.938000W
41.5492500,-100.0489667
(estimated)
Elevation: 2838 ft. / 865 m (estimated)
From city: 9 miles SW of ANSELMO, NE
Time zone: UTC -6 (UTC -5 during Daylight Saving Time)
Zip code: 69120

Airport Operations

Airport use: Private use. Permission required prior to landing
Activation date: 07/2016
Control tower: no
ARTCC: DENVER CENTER
FSS: COLUMBUS FLIGHT SERVICE STATION
Attendance: 
Segmented circle: no

Airport Communications

WX ASOS at BBW (19 nm E): 120.0 (308-872-5354)

Nearby radio navigation aids

VOR radial/distance  VOR name  Freq  Var
CUZr276/16.6CUSTER COUNTY VOR/DME108.2008E
TDDr122/39.7THEDFORD VOR/DME108.6009E

Airport Services

Runway Information

Runway 18/36

Dimensions: 2600 x 120 ft. / 792 x 37 m
Surface: turf
RUNWAY 18  RUNWAY 36
Latitude: 41-33.169167N41-32.740833N
Longitude: 100-02.940333W100-02.935667W
Elevation: 2811.0 ft.2838.0 ft.
Traffic pattern: leftleft

Airport Ownership and Management from official FAA records

Ownership: Privately-owned
Owner: TOM AND LYNNE WERNER
2729 LAKEWOOD DR.
GRAND ISLAND, NE 68801
Phone 308-380-8738
Manager: TOM AND LYNNE WERNER
2729 LAKEWOOD DR.
GRAND ISLAND, NE 68801
Phone 308-380-8738

Airport Operational Statistics

Aircraft based on the field: 1
Single engine airplanes: 1
    

Additional Remarks

FOR CD CTC DENVER ARTCC AT 303-651-4257.

Instrument Procedures

There are no published instrument procedures at NE36.

Some nearby airports with instrument procedures:

KBBW - Broken Bow Municipal Airport/Keith Glaze Field (19 nm E)
KTIF - Thomas County Airport (34 nm NW)
KGTE - Gothenburg Municipal Airport (38 nm S)
KLBF - North Platte Regional Airport/Lee Bird Field (38 nm SW)
KCZD - Cozad Municipal Airport (41 nm S)
 
Loc | Ops | Rwys | IFR | FBO | Links
Com | Nav | Svcs | Stats | Notes
Aerial photo
No photo
 
Airport distance calculator
Flying to Werner Ranch Airfield? Find the distance to fly.

From to NE36

Sunrise and sunset
Times for 27-Nov-2022
 Local
(UTC-6)
 Zulu
(UTC)
Morning civil twilight07:1313:13
Sunrise07:4413:44
Sunset17:1223:12
Evening civil twilight17:4223:42

Current date and time
Zulu (UTC)  27-Nov-2022 11:18:39
Local (UTC-6)  27-Nov-2022 05:18:39
 
METAR
KBBW 
20nm SE 
271053Z AUTO 34018KT 10SM FEW120 00/M04 A2990 RMK AO2 PK WND 34026/1023 SLP130 T00001044
KTIF 
34nm NW 
271055Z AUTO 31006KT 10SM CLR M03/M06 A2995 RMK AO2 T10351057
KLBF 
38nm SW 
271053Z AUTO 32009KT 10SM OVC110 00/M06 A2993 RMK AO2 SLP141 T00001056
TAF
KLBF 
38nm SW 
270520Z 2706/2806 35014G27KT P6SM BKN110 FM270900 34013G21KT P6SM BKN100 FM271200 33010KT P6SM BKN200 FM272200 20008KT P6SM SKC
NOTAMs
Click for the latest NOTAMs
NOTAMs are issued by the DoD/FAA and will open in a separate window not controlled by AirNav.

 

 
 

Would you like to see your business listed on this page?

 If your business provides an interesting product or service to pilots, flight crews, aircraft, or users of the Werner Ranch Airfield, you should consider listing it here.  To start the listing process, click on the button below
 
Add a business
 

Other Pages about Werner Ranch Airfield

Update a link
 
Copyright © AirNav, LLC. All rights reserved. Privacy Policy  Contact